Time;durP1;ratioP1;P1;durP2;ratioP2;P2;SDS_P1;SDS_P2;PMS_P1;PMS_P2;Temp;Humidity;BMP_temperature;BMP_pressure;BME280_temperature;BME280_humidity;BME280_pressure;Samples;Min_cycle;Max_cycle;Signal;HPM_P1;HPM_P2
2021/05/16 00:02:07;;;;;;;6.40;5.22;;;;;;;10.13;100.00;99559.63;4960199;28;20039;-73
2021/05/16 00:04:33;;;;;;;7.15;5.25;;;;;;;10.20;100.00;99559.63;4960526;28;20026;-73
2021/05/16 00:06:58;;;;;;;7.75;5.32;;;;;;;10.31;100.00;99551.59;4970434;28;20161;-73
2021/05/16 00:09:24;;;;;;;6.07;5.00;;;;;;;10.44;100.00;99560.88;4961730;28;20039;-73
2021/05/16 00:11:49;;;;;;;6.78;5.45;;;;;;;10.29;100.00;99546.63;4972263;28;20042;-73
2021/05/16 00:14:15;;;;;;;5.78;5.03;;;;;;;10.29;100.00;99556.59;4962936;28;20035;-73
2021/05/16 00:16:40;;;;;;;6.88;5.25;;;;;;;10.32;100.00;99551.22;4969597;28;20034;-73
2021/05/16 00:19:06;;;;;;;7.95;5.88;;;;;;;10.44;100.00;99550.09;4966281;28;20034;-73
2021/05/16 00:21:32;;;;;;;7.85;5.60;;;;;;;10.44;100.00;99550.88;4975278;28;20542;-73
2021/05/16 00:23:58;;;;;;;7.45;5.63;;;;;;;10.53;100.00;99545.16;4973179;28;20039;-73
2021/05/16 00:26:23;;;;;;;7.07;6.05;;;;;;;10.53;100.00;99537.81;4974419;28;20521;-73
2021/05/16 00:28:49;;;;;;;7.95;5.88;;;;;;;10.46;100.00;99545.88;4974937;28;20101;-73
2021/05/16 00:31:15;;;;;;;7.13;5.78;;;;;;;10.46;100.00;99545.88;4974361;28;20035;-73
2021/05/16 00:33:40;;;;;;;6.70;5.38;;;;;;;10.51;100.00;99545.50;4974691;28;20031;-73
2021/05/16 00:36:06;;;;;;;7.43;5.80;;;;;;;10.45;100.00;99533.56;4974844;28;20035;-73
2021/05/16 00:38:31;;;;;;;8.10;5.63;;;;;;;10.45;100.00;99547.03;4974958;28;20042;-73
2021/05/16 00:40:57;;;;;;;8.32;5.72;;;;;;;10.57;100.00;99545.91;4973648;28;20128;-73
2021/05/16 00:43:22;;;;;;;9.27;6.70;;;;;;;10.65;100.00;99534.78;4974254;28;20063;-74
2021/05/16 00:45:48;;;;;;;7.43;5.95;;;;;;;10.56;100.00;99539.00;4974991;28;20045;-74
2021/05/16 00:48:15;;;;;;;8.48;5.60;;;;;;;10.65;100.00;99542.84;4975163;28;20071;-73
2021/05/16 00:50:44;;;;;;;7.38;5.88;;;;;;;10.62;100.00;99540.94;4965555;28;20014;-73
2021/05/16 00:53:10;;;;;;;5.95;5.20;;;;;;;10.55;100.00;99537.47;4973312;28;20039;-74
2021/05/16 00:55:37;;;;;;;8.10;5.55;;;;;;;10.55;100.00;99538.22;4974955;28;20070;-73
2021/05/16 00:58:05;;;;;;;6.05;4.78;;;;;;;10.64;100.00;99533.25;4972785;28;20045;-73
2021/05/16 01:00:41;;;;;;;5.95;5.35;;;;;;;10.66;100.00;99530.16;4972211;28;20086;-73
2021/05/16 01:03:17;;;;;;;6.65;5.00;;;;;;;10.58;100.00;99520.53;4974749;28;20031;-73
2021/05/16 01:05:43;;;;;;;7.38;5.60;;;;;;;10.76;100.00;99527.47;4972933;28;20123;-73
2021/05/16 01:08:10;;;;;;;7.20;5.50;;;;;;;10.78;100.00;99527.84;4973356;28;20515;-73
2021/05/16 01:10:36;;;;;;;7.50;5.60;;;;;;;10.63;100.00;99518.22;4972097;28;20031;-73
2021/05/16 01:13:04;;;;;;;9.85;5.60;;;;;;;10.60;100.00;99524.38;4973115;28;20050;-73
2021/05/16 01:15:31;;;;;;;6.35;5.07;;;;;;;10.55;100.00;99519.38;4956413;28;20023;-74
2021/05/16 01:17:57;;;;;;;9.65;5.10;;;;;;;10.58;100.00;99512.47;4974231;28;20050;-73
2021/05/16 01:20:29;;;;;;;5.75;5.10;;;;;;;10.62;100.00;99513.25;4972175;28;20031;-73
2021/05/16 01:23:04;;;;;;;6.32;5.15;;;;;;;10.60;100.00;99510.16;4973976;28;20114;-73
2021/05/16 01:25:32;;;;;;;6.63;4.97;;;;;;;10.44;100.00;99507.03;4973351;28;20034;-73
2021/05/16 01:27:58;;;;;;;6.35;5.25;;;;;;;10.53;100.00;99516.28;4967503;28;20089;-73
2021/05/16 01:30:24;;;;;;;5.85;5.05;;;;;;;10.47;100.00;99504.34;4971324;28;20085;-73
2021/05/16 01:32:51;;;;;;;7.03;4.88;;;;;;;10.60;100.00;99510.16;4985414;28;20061;-73
2021/05/16 01:35:18;;;;;;;6.03;5.18;;;;;;;10.67;100.00;99515.53;4973830;28;20053;-73
2021/05/16 01:37:44;;;;;;;6.25;5.18;;;;;;;10.51;100.00;99515.91;4960725;28;20023;-74
2021/05/16 01:40:10;;;;;;;7.65;4.95;;;;;;;10.26;100.00;99514.31;5038031;22;20075;-76
2021/05/16 01:42:39;;;;;;;6.63;4.88;;;;;;;10.37;100.00;99517.81;5000301;28;20508;-77
2021/05/16 01:45:07;;;;;;;6.20;4.88;;;;;;;10.51;100.00;99507.06;5038806;28;20041;-76
2021/05/16 01:47:33;;;;;;;6.70;4.97;;;;;;;10.63;100.00;99517.44;5040135;28;20442;-76
2021/05/16 01:50:09;;;;;;;8.52;4.57;;;;;;;10.59;100.00;99514.75;5054530;28;20099;-76
2021/05/16 01:52:35;;;;;;;5.25;4.22;;;;;;;10.66;100.00;99514.00;5051473;28;20098;-76
2021/05/16 01:55:02;;;;;;;4.88;4.38;;;;;;;10.57;100.00;99518.97;5020239;28;20098;-77
2021/05/16 01:57:30;;;;;;;5.65;4.47;;;;;;;10.24;100.00;99520.06;5055172;28;20615;-77
2021/05/16 01:59:56;;;;;;;7.75;4.55;;;;;;;10.34;100.00;99521.22;5051229;28;20158;-76
2021/05/16 02:02:21;;;;;;;6.13;4.60;;;;;;;10.37;100.00;99515.13;5044264;28;20043;-76
2021/05/16 02:04:48;;;;;;;5.53;4.20;;;;;;;10.29;100.00;99519.72;5049933;28;20446;-76
2021/05/16 02:07:14;;;;;;;5.85;4.45;;;;;;;10.19;100.00;99523.13;5034435;28;20087;-76
2021/05/16 02:09:44;;;;;;;5.68;4.32;;;;;;;10.12;100.00;99517.72;5017345;28;20071;-76
2021/05/16 02:12:10;;;;;;;6.88;4.13;;;;;;;10.13;100.00;99511.19;5050475;28;20037;-76
2021/05/16 02:14:37;;;;;;;6.28;4.70;;;;;;;10.22;100.00;99519.66;5038329;28;20048;-76
2021/05/16 02:17:04;;;;;;;6.38;4.50;;;;;;;9.99;100.00;99511.88;5037304;28;20029;-76
2021/05/16 02:19:30;;;;;;;7.28;4.68;;;;;;;10.03;100.00;99522.66;5037279;28;20031;-76
2021/05/16 02:21:57;;;;;;;5.47;4.47;;;;;;;9.84;100.00;99517.56;5034085;28;20025;-76
2021/05/16 02:24:23;;;;;;;7.13;4.78;;;;;;;9.98;100.00;99514.97;5037345;28;20457;-76
2021/05/16 02:27:00;;;;;;;6.93;4.30;;;;;;;9.87;100.00;99519.53;5032030;28;20041;-76
2021/05/16 02:29:30;;;;;;;6.60;4.35;;;;;;;10.08;100.00;99514.22;5025106;28;20036;-76
2021/05/16 02:31:59;;;;;;;7.07;4.57;;;;;;;10.15;100.00;99516.97;5034429;28;20033;-76
2021/05/16 02:34:26;;;;;;;7.05;4.15;;;;;;;9.94;100.00;99519.56;5054798;28;20823;-77
2021/05/16 02:36:53;;;;;;;6.15;4.45;;;;;;;10.12;100.00;99515.03;5035077;28;20049;-76
2021/05/16 02:39:19;;;;;;;7.75;4.50;;;;;;;10.24;100.00;99513.94;5032331;28;20029;-76
2021/05/16 02:41:45;;;;;;;5.63;4.72;;;;;;;10.22;100.00;99513.53;5054960;28;20643;-76
2021/05/16 02:44:10;;;;;;;8.38;4.43;;;;;;;10.31;100.00;99514.72;5052328;28;20033;-76
2021/05/16 02:46:38;;;;;;;5.88;4.53;;;;;;;10.35;100.00;99523.56;5038408;28;20032;-76
2021/05/16 02:49:03;;;;;;;6.40;4.65;;;;;;;10.39;100.00;99518.19;5033819;28;20519;-76
2021/05/16 02:51:29;;;;;;;8.68;4.72;;;;;;;10.36;100.00;99525.09;5036135;28;20033;-76
2021/05/16 02:53:55;;;;;;;6.05;4.60;;;;;;;10.35;100.00;99520.09;5035467;28;20030;-75
2021/05/16 02:56:21;;;;;;;6.63;4.80;;;;;;;10.30;100.00;99521.22;5053486;28;20079;-75
2021/05/16 02:58:48;;;;;;;5.45;4.45;;;;;;;10.39;100.00;99510.13;5055312;28;20421;-77
2021/05/16 03:01:14;;;;;;;7.55;4.80;;;;;;;10.35;100.00;99518.19;5053474;28;20036;-77
2021/05/16 03:03:45;;;;;;;5.70;4.47;;;;;;;10.35;100.00;99517.41;5055477;28;20500;-75
2021/05/16 03:06:12;;;;;;;7.47;4.53;;;;;;;10.32;100.00;99508.16;5045750;28;20132;-77
2021/05/16 03:08:38;;;;;;;5.53;4.30;;;;;;;10.15;100.00;99506.22;5034616;28;20040;-76
2021/05/16 03:11:05;;;;;;;5.70;4.82;;;;;;;10.24;100.00;99512.00;5044063;28;20408;-76
2021/05/16 03:13:31;;;;;;;7.65;4.65;;;;;;;10.39;100.00;99510.13;5035564;28;20029;-76
2021/05/16 03:16:00;;;;;;;5.68;4.53;;;;;;;10.37;100.00;99507.81;5036964;28;20033;-76
2021/05/16 03:18:29;;;;;;;7.30;5.30;;;;;;;10.46;100.00;99507.44;5052686;28;20037;-77
2021/05/16 03:20:54;;;;;;;5.70;4.45;;;;;;;10.48;100.00;99499.75;5034776;28;20037;-76
2021/05/16 03:23:20;;;;;;;6.82;4.65;;;;;;;10.52;100.00;99505.91;5036808;28;20400;-77
2021/05/16 03:25:47;;;;;;;6.60;4.65;;;;;;;10.39;100.00;99508.22;5055003;28;20037;-76
2021/05/16 03:28:13;;;;;;;9.85;5.10;;;;;;;10.47;100.00;99514.38;5051124;28;20043;-75
2021/05/16 03:30:39;;;;;;;6.05;4.72;;;;;;;10.43;100.00;99503.56;5049568;28;20037;-76
2021/05/16 03:33:04;;;;;;;6.75;4.47;;;;;;;10.39;100.00;99502.81;5052664;28;20400;-76
2021/05/16 03:35:30;;;;;;;8.65;5.03;;;;;;;10.43;100.00;99503.56;5055920;28;20036;-76
2021/05/16 03:37:55;;;;;;;5.93;4.50;;;;;;;10.43;100.00;99498.19;5034578;28;20115;-76
2021/05/16 03:40:21;;;;;;;7.88;5.03;;;;;;;10.46;100.00;99502.81;5054186;28;20059;-76
2021/05/16 03:42:46;;;;;;;6.63;5.03;;;;;;;10.41;100.00;99507.81;5045266;28;20043;-75
2021/05/16 03:45:12;;;;;;;6.18;4.50;;;;;;;10.48;100.00;99503.22;5029977;28;20436;-76
2021/05/16 03:47:39;;;;;;;6.57;4.75;;;;;;;10.46;100.00;99508.22;5046393;28;20034;-76
2021/05/16 03:50:07;;;;;;;6.28;4.75;;;;;;;10.47;100.00;99520.50;5054280;28;20036;-76
2021/05/16 03:52:32;;;;;;;7.55;4.65;;;;;;;10.42;100.00;99515.50;5037486;28;20044;-76
2021/05/16 03:54:58;;;;;;;8.55;4.65;;;;;;;10.52;100.00;99509.38;5047441;28;20493;-76
2021/05/16 03:57:23;;;;;;;9.52;5.10;;;;;;;10.53;100.00;99502.81;5045997;28;20098;-76
2021/05/16 03:59:49;;;;;;;6.63;4.82;;;;;;;10.65;100.00;99515.94;5022980;28;20488;-76
2021/05/16 04:02:15;;;;;;;6.03;4.72;;;;;;;10.45;100.00;99511.28;5035341;28;20033;-76
2021/05/16 04:04:40;;;;;;;10.25;6.47;;;;;;;10.31;100.00;99514.72;5040360;28;20038;-76
2021/05/16 04:07:06;;;;;;;8.48;5.05;;;;;;;10.58;100.00;99515.94;5035668;28;20045;-76
2021/05/16 04:09:31;;;;;;;7.40;4.90;;;;;;;10.39;100.00;99518.19;5042558;28;20047;-76
2021/05/16 04:11:57;;;;;;;7.00;4.90;;;;;;;10.46;100.00;99521.66;5052644;28;20489;-76
2021/05/16 04:14:23;;;;;;;7.40;5.10;;;;;;;10.66;100.00;99524.78;5052634;28;20025;-76
2021/05/16 04:16:50;;;;;;;7.93;5.45;;;;;;;10.72;100.00;99521.31;5028207;28;20529;-75
2021/05/16 04:19:16;;;;;;;6.57;4.95;;;;;;;10.68;100.00;99527.88;5032889;28;20033;-76
2021/05/16 04:21:41;;;;;;;11.30;5.18;;;;;;;10.70;100.00;99517.47;5056076;28;20389;-76
2021/05/16 04:24:07;;;;;;;7.75;4.90;;;;;;;10.73;100.00;99519.41;5056374;28;20108;-76
2021/05/16 04:26:33;;;;;;;7.35;5.30;;;;;;;10.69;100.00;99519.41;5054543;28;20405;-76
2021/05/16 04:28:58;;;;;;;9.77;4.93;;;;;;;10.95;100.00;99517.50;5053240;28;20032;-76
2021/05/16 04:31:24;;;;;;;7.75;5.30;;;;;;;10.99;100.00;99520.94;5059862;28;20520;-77
2021/05/16 04:33:50;;;;;;;8.25;5.50;;;;;;;11.04;100.00;99524.03;5055691;28;20044;-76
2021/05/16 04:36:16;;;;;;;7.07;4.45;;;;;;;10.92;100.00;99516.31;5029724;28;20025;-76
2021/05/16 04:38:41;;;;;;;7.68;4.65;;;;;;;10.84;100.00;99526.31;5051634;28;20033;-76
2021/05/16 04:41:07;;;;;;;9.25;4.25;;;;;;;10.78;100.00;99513.66;5045723;28;20029;-76
2021/05/16 04:43:32;;;;;;;6.47;4.35;;;;;;;10.79;100.00;99518.66;5050519;28;20460;-76
2021/05/16 04:45:57;;;;;;;6.32;4.30;;;;;;;10.79;100.00;99529.41;5045879;28;20046;-76
2021/05/16 04:48:23;;;;;;;6.38;5.05;;;;;;;10.69;100.00;99529.38;5048299;28;20032;-76
2021/05/16 04:50:48;;;;;;;7.18;4.95;;;;;;;10.92;100.00;99529.03;5021391;28;20029;-74
2021/05/16 04:53:14;;;;;;;7.63;4.90;;;;;;;10.79;100.00;99524.03;5041702;28;20104;-76
2021/05/16 04:55:39;;;;;;;8.88;5.22;;;;;;;10.89;100.00;99528.66;5021327;28;20512;-76
2021/05/16 04:58:05;;;;;;;7.28;5.10;;;;;;;11.08;100.00;99529.41;5056227;28;20032;-76
2021/05/16 05:00:30;;;;;;;8.15;5.07;;;;;;;11.13;100.00;99529.03;5044476;28;20057;-76
2021/05/16 05:02:57;;;;;;;7.72;4.97;;;;;;;10.79;100.00;99525.94;5020325;28;20037;-77
2021/05/16 05:05:23;;;;;;;7.25;4.78;;;;;;;10.94;100.00;99530.19;5048645;28;20124;-76
2021/05/16 05:07:49;;;;;;;8.43;5.22;;;;;;;11.03;100.00;99532.50;5027465;28;20104;-76
2021/05/16 05:10:14;;;;;;;6.13;4.80;;;;;;;10.89;100.00;99536.75;5047949;28;20063;-76
2021/05/16 05:12:39;;;;;;;7.15;4.75;;;;;;;10.92;100.00;99529.78;5035643;28;20462;-76
2021/05/16 05:15:06;;;;;;;6.78;4.95;;;;;;;11.02;100.00;99534.41;5053203;28;20701;-75
2021/05/16 05:17:32;;;;;;;7.10;4.70;;;;;;;11.26;100.00;99533.66;5052554;28;20604;-76
2021/05/16 05:19:57;;;;;;;6.60;4.80;;;;;;;11.10;100.00;99535.19;5043017;28;20045;-77
2021/05/16 05:22:23;;;;;;;6.00;4.88;;;;;;;11.01;100.00;99537.50;5049099;28;20460;-76
2021/05/16 05:24:48;;;;;;;7.05;4.80;;;;;;;10.92;100.00;99524.41;5053175;28;20519;-76
2021/05/16 05:27:14;;;;;;;6.40;4.72;;;;;;;11.10;100.00;99532.50;5051243;28;20044;-76
2021/05/16 05:29:39;;;;;;;6.63;4.80;;;;;;;10.97;100.00;99529.44;5032276;28;20115;-76
2021/05/16 05:32:05;;;;;;;7.22;5.10;;;;;;;11.17;100.00;99535.19;5027886;28;20040;-76
2021/05/16 05:34:31;;;;;;;7.32;5.28;;;;;;;11.37;100.00;99533.63;5013705;28;20031;-76
2021/05/16 05:36:56;;;;;;;6.93;5.40;;;;;;;11.60;100.00;99520.47;5044489;28;20508;-76
2021/05/16 05:39:22;;;;;;;6.85;5.05;;;;;;;11.67;100.00;99520.53;5040003;28;20033;-76
2021/05/16 05:41:47;;;;;;;8.60;5.18;;;;;;;11.58;100.00;99520.88;5039935;28;20044;-76
2021/05/16 05:44:14;;;;;;;8.00;5.55;;;;;;;11.78;100.00;99523.94;5041837;28;20025;-76
2021/05/16 05:46:40;;;;;;;7.05;4.85;;;;;;;11.65;100.00;99528.19;5044025;28;20394;-76
2021/05/16 05:49:05;;;;;;;8.18;5.22;;;;;;;11.73;100.00;99522.41;5042815;28;20044;-76
2021/05/16 05:51:31;;;;;;;6.05;4.57;;;;;;;11.76;100.00;99528.97;5047233;28;20398;-76
2021/05/16 05:53:56;;;;;;;7.93;4.85;;;;;;;11.52;100.00;99524.34;5046593;28;20029;-76
2021/05/16 05:56:22;;;;;;;7.72;4.95;;;;;;;11.53;100.00;99536.69;5023737;28;20025;-76
2021/05/16 05:58:47;;;;;;;7.32;4.95;;;;;;;11.84;100.00;99530.47;5022324;28;20029;-74
2021/05/16 06:01:13;;;;;;;5.88;4.65;;;;;;;12.04;100.00;99518.06;5044117;28;20405;-76
2021/05/16 06:03:38;;;;;;;6.75;5.45;;;;;;;11.83;100.00;99528.91;5047716;28;20078;-76
2021/05/16 06:06:04;;;;;;;7.72;5.15;;;;;;;11.99;100.00;99537.34;5048026;28;20405;-76
2021/05/16 06:08:30;;;;;;;6.47;4.97;;;;;;;12.11;100.00;99525.34;5042598;28;20421;-77
2021/05/16 06:10:55;;;;;;;8.13;5.15;;;;;;;12.07;100.00;99522.69;5045034;28;20112;-73
2021/05/16 06:13:21;;;;;;;8.15;5.47;;;;;;;11.89;100.00;99529.28;5042214;28;20036;-77
2021/05/16 06:15:46;;;;;;;7.57;5.03;;;;;;;11.79;100.00;99520.84;5045186;28;20039;-76
2021/05/16 06:18:12;;;;;;;8.13;5.70;;;;;;;12.01;100.00;99531.56;5038213;28;20096;-76
2021/05/16 06:20:37;;;;;;;9.23;5.93;;;;;;;12.11;100.00;99531.53;5045407;28;20039;-77
2021/05/16 06:23:04;;;;;;;6.97;5.57;;;;;;;11.89;100.00;99523.88;5045337;28;20133;-76
2021/05/16 06:25:30;;;;;;;10.30;6.13;;;;;;;11.92;100.00;99525.81;5041129;28;20038;-77
2021/05/16 06:27:56;;;;;;;8.82;6.38;;;;;;;12.13;100.00;99536.53;5047116;28;20116;-76
2021/05/16 06:30:23;;;;;;;8.80;6.22;;;;;;;12.37;100.00;99531.00;5027420;28;20104;-77
2021/05/16 06:32:49;;;;;;;8.65;6.35;;;;;;;12.61;100.00;99529.31;5059304;28;20032;-76
2021/05/16 06:35:14;;;;;;;10.15;6.32;;;;;;;13.00;100.00;99526.34;5059301;28;20073;-77
2021/05/16 06:37:40;;;;;;;9.25;5.72;;;;;;;13.06;100.00;99524.78;5043685;28;20032;-77
2021/05/16 06:40:06;;;;;;;5.72;4.68;;;;;;;13.35;100.00;99534.97;5036866;28;20645;-76
2021/05/16 06:42:31;;;;;;;6.40;5.15;;;;;;;13.47;100.00;99531.75;5052500;28;20056;-77
2021/05/16 06:44:57;;;;;;;9.10;5.53;;;;;;;13.39;100.00;99534.94;5054080;28;20129;-75
2021/05/16 06:47:23;;;;;;;8.73;6.30;;;;;;;12.97;100.00;99540.66;5061001;28;20068;-77
2021/05/16 06:49:52;;;;;;;10.77;6.03;;;;;;;12.76;100.00;99546.19;5071404;28;20028;-77
2021/05/16 06:52:21;;;;;;;10.32;5.95;;;;;;;12.52;100.00;99542.50;5073817;28;20036;-77
2021/05/16 06:54:48;;;;;;;9.68;6.93;;;;;;;12.53;100.00;99544.03;5036503;28;20017;-76
2021/05/16 06:57:17;;;;;;;10.45;6.90;;;;;;;12.98;100.00;99536.78;5056083;28;20086;-76
2021/05/16 06:59:42;;;;;;;9.07;6.57;;;;;;;13.24;100.00;99536.22;5072672;28;20155;-76
2021/05/16 07:02:08;;;;;;;10.13;6.72;;;;;;;13.38;100.00;99533.38;5047203;28;20033;-76
2021/05/16 07:04:34;;;;;;;10.13;6.90;;;;;;;13.51;100.00;99543.28;5059503;28;20500;-76
2021/05/16 07:06:59;;;;;;;10.73;7.57;;;;;;;13.52;100.00;99531.31;5056301;28;20659;-76
2021/05/16 07:09:24;;;;;;;9.73;8.13;;;;;;;13.78;100.00;99539.94;5041255;28;20476;-74
2021/05/16 07:11:51;;;;;;;11.23;7.47;;;;;;;13.98;100.00;99538.94;5051531;28;20056;-74
2021/05/16 07:14:16;;;;;;;10.60;7.78;;;;;;;13.61;100.00;99540.91;5057419;28;20075;-74
2021/05/16 07:16:42;;;;;;;10.95;8.40;;;;;;;13.40;100.00;99548.03;5058162;28;20059;-74
2021/05/16 07:19:07;;;;;;;12.60;9.02;;;;;;;12.85;100.00;99551.94;5032204;28;20565;-74
2021/05/16 07:21:33;;;;;;;13.13;8.38;;;;;;;12.78;100.00;99543.88;5057528;28;20035;-74
2021/05/16 07:23:58;;;;;;;11.50;8.32;;;;;;;12.98;100.00;99545.66;5020008;28;20116;-77
2021/05/16 07:26:24;;;;;;;9.90;7.38;;;;;;;13.15;100.00;99542.09;5057256;28;20067;-75
2021/05/16 07:28:50;;;;;;;10.43;8.02;;;;;;;13.34;100.00;99544.22;5051942;28;20485;-75
2021/05/16 07:31:16;;;;;;;12.18;7.93;;;;;;;13.47;100.00;99541.81;5039162;28;20040;-76
2021/05/16 07:33:42;;;;;;;11.90;7.15;;;;;;;13.56;100.00;99545.56;5031947;28;20021;-75
2021/05/16 07:36:08;;;;;;;11.98;7.78;;;;;;;13.58;100.00;99542.47;5039044;28;20280;-76
2021/05/16 07:41:13;;;;;;;9.38;7.65;;;;;;;13.82;100.00;99552.25;5003361;28;20046;-74
2021/05/16 07:43:39;;;;;;;10.00;7.65;;;;;;;13.56;100.00;99550.22;4992177;28;20393;-73
2021/05/16 07:46:05;;;;;;;12.80;8.30;;;;;;;13.58;100.00;99553.28;5006801;28;20075;-74
2021/05/16 07:48:30;;;;;;;11.93;8.70;;;;;;;13.71;100.00;99546.19;5004289;28;20025;-73
2021/05/16 07:50:58;;;;;;;9.98;7.85;;;;;;;14.32;100.00;99547.81;5019449;28;20037;-74
2021/05/16 07:53:24;;;;;;;12.18;7.88;;;;;;;14.67;100.00;99543.09;5024332;28;20037;-75
2021/05/16 07:55:50;;;;;;;10.68;8.40;;;;;;;14.71;100.00;99544.56;5026152;28;20040;-74
2021/05/16 07:58:16;;;;;;;9.57;7.50;;;;;;;14.75;100.00;99544.53;5024281;28;20478;-74
2021/05/16 08:00:41;;;;;;;11.48;7.63;;;;;;;14.50;100.00;99541.41;5026438;28;20069;-74
2021/05/16 08:03:07;;;;;;;11.82;7.88;;;;;;;14.27;100.00;99537.44;5022064;28;20114;-74
2021/05/16 08:05:32;;;;;;;11.93;8.02;;;;;;;14.21;100.00;99547.16;5030398;28;20044;-74
2021/05/16 08:07:58;;;;;;;11.52;7.55;;;;;;;14.22;100.00;99543.28;5009321;28;20397;-74
2021/05/16 08:10:23;;;;;;;14.98;8.35;;;;;;;13.87;100.00;99548.34;5013840;28;20065;-76
2021/05/16 08:12:50;;;;;;;13.52;8.80;;;;;;;13.90;100.00;99537.47;5020420;28;20021;-74
2021/05/16 08:15:16;;;;;;;15.45;8.90;;;;;;;14.32;100.00;99530.81;5025421;28;20030;-74
2021/05/16 08:17:42;;;;;;;12.05;8.07;;;;;;;15.24;100.00;99530.94;5020595;28;20083;-74
2021/05/16 08:20:09;;;;;;;13.55;7.90;;;;;;;15.19;99.21;99525.22;5016730;28;20021;-75
2021/05/16 08:22:36;;;;;;;12.88;7.47;;;;;;;14.96;95.24;99525.97;5025393;28;20429;-74
2021/05/16 08:25:04;;;;;;;9.95;7.63;;;;;;;15.30;97.37;99523.88;5011608;28;20081;-74
2021/05/16 08:27:30;;;;;;;12.15;7.90;;;;;;;15.21;97.77;99531.75;5014014;28;20048;-75
2021/05/16 08:29:55;;;;;;;11.50;7.90;;;;;;;15.10;98.85;99535.81;5002512;28;20124;-75
2021/05/16 08:32:21;;;;;;;10.55;7.60;;;;;;;15.08;96.97;99535.47;5020928;28;20494;-75
2021/05/16 08:34:47;;;;;;;14.40;8.13;;;;;;;14.98;97.79;99533.72;5015631;28;20033;-75
2021/05/16 08:37:13;;;;;;;13.45;8.15;;;;;;;15.04;98.33;99538.25;5020848;28;20033;-75
2021/05/16 08:39:39;;;;;;;11.27;6.97;;;;;;;15.05;95.65;99533.59;5006578;28;20359;-75
2021/05/16 08:42:04;;;;;;;11.98;6.90;;;;;;;14.71;94.90;99535.69;5018945;28;20646;-75
2021/05/16 08:44:32;;;;;;;13.30;7.45;;;;;;;14.74;96.61;99530.22;5025298;28;20030;-75
2021/05/16 08:47:00;;;;;;;10.27;7.90;;;;;;;14.92;96.58;99533.44;5004781;28;20121;-74
2021/05/16 08:49:25;;;;;;;11.95;7.75;;;;;;;14.93;95.84;99536.88;5015599;28;20041;-75
2021/05/16 08:51:51;;;;;;;13.40;8.13;;;;;;;14.98;96.29;99533.72;5008832;28;20022;-76
2021/05/16 08:54:21;;;;;;;12.05;8.63;;;;;;;15.20;95.73;99538.38;5019384;28;20864;-75
2021/05/16 08:56:50;;;;;;;13.07;8.18;;;;;;;15.17;95.17;99541.16;5022613;28;20040;-75
2021/05/16 08:59:16;;;;;;;13.18;8.80;;;;;;;14.67;95.28;99524.91;5004892;28;20025;-75
2021/05/16 09:01:46;;;;;;;9.30;7.50;;;;;;;14.67;95.49;99529.53;5032071;28;20040;-74
2021/05/16 09:04:28;;;;;;;10.25;7.50;;;;;;;15.29;95.80;99532.44;5012873;28;20041;-74
2021/05/16 09:06:55;;;;;;;9.70;7.00;;;;;;;16.14;95.22;99529.66;5026181;28;20039;-75
2021/05/16 09:09:37;;;;;;;13.30;7.10;;;;;;;16.30;92.83;99533.63;5028898;28;20033;-74
2021/05/16 09:12:03;;;;;;;9.88;6.90;;;;;;;16.32;90.64;99536.69;5016894;28;20145;-74
2021/05/16 09:14:42;;;;;;;10.75;6.78;;;;;;;16.40;90.56;99538.03;5021793;28;20033;-75
2021/05/16 09:17:21;;;;;;;10.40;6.63;;;;;;;15.83;91.02;99533.75;5019488;28;20091;-75
2021/05/16 09:19:49;;;;;;;8.43;7.00;;;;;;;15.77;91.09;99537.41;5014467;28;20662;-75
2021/05/16 09:22:47;;;;;;;12.68;6.90;;;;;;;15.99;92.36;99536.56;5013048;28;20478;-75
2021/05/16 09:25:34;;;;;;;13.68;6.95;;;;;;;16.34;89.12;99535.06;4976956;28;20052;-75
2021/05/16 09:28:05;;;;;;;8.98;5.78;;;;;;;16.79;88.46;99535.25;5019033;28;20504;-74
2021/05/16 09:30:32;;;;;;;;;;;;;;;16.73;85.43;99534.22;5018467;28;20057;-76
2021/05/16 09:33:00;;;;;;;9.82;5.22;;;;;;;16.76;85.17;99530.69;5001806;28;20012;-74
2021/05/16 09:35:50;;;;;;;8.10;5.00;;;;;;;16.49;86.04;99547.19;5020336;28;20025;-76
2021/05/16 09:38:20;;;;;;;7.97;4.40;;;;;;;15.98;89.92;99551.34;5021223;28;20034;-75
2021/05/16 09:40:52;;;;;;;5.82;4.15;;;;;;;15.96;93.41;99550.22;5021228;28;20048;-76
2021/05/16 09:43:26;;;;;;;6.07;3.90;;;;;;;15.98;93.06;99556.78;5011387;28;20040;-74
2021/05/16 09:45:55;;;;;;;7.03;2.92;;;;;;;15.71;92.44;99541.78;5020588;28;20030;-75
2021/05/16 09:48:44;;;;;;;3.45;1.95;;;;;;;15.32;93.22;99540.50;5014924;28;20032;-75
2021/05/16 09:51:16;;;;;;;2.45;1.60;;;;;;;15.38;94.08;99541.56;5028610;28;20064;-76
2021/05/16 09:53:52;;;;;;;3.97;1.33;;;;;;;15.44;93.48;99544.59;5018412;28;20021;-76
2021/05/16 09:56:27;;;;;;;1.98;1.33;;;;;;;15.74;91.34;99540.94;5013087;28;20036;-76
2021/05/16 09:58:56;;;;;;;2.22;1.30;;;;;;;15.85;90.19;99546.94;5027146;28;20037;-75
2021/05/16 10:01:23;;;;;;;2.30;1.52;;;;;;;16.22;90.36;99543.84;5027368;28;20454;-76
2021/05/16 10:03:49;;;;;;;2.47;1.27;;;;;;;16.19;88.48;99545.47;4994586;28;20025;-75
2021/05/16 10:06:19;;;;;;;4.40;1.73;;;;;;;16.62;81.02;99539.16;5018646;28;20036;-75
2021/05/16 10:08:48;;;;;;;2.45;2.22;;;;;;;17.19;84.69;99539.34;5022817;28;20037;-75
2021/05/16 10:11:15;;;;;;;6.35;2.30;;;;;;;17.76;83.71;99534.00;5023856;28;20434;-75
2021/05/16 10:13:52;;;;;;;4.32;2.20;;;;;;;17.53;79.31;99526.06;5023813;28;20018;-76
2021/05/16 10:16:19;;;;;;;7.43;2.70;;;;;;;18.20;80.88;99523.41;5023297;28;20067;-75
2021/05/16 10:18:47;;;;;;;5.90;3.40;;;;;;;18.31;78.80;99521.16;5025184;28;20037;-76
2021/05/16 10:21:13;;;;;;;6.32;3.22;;;;;;;19.00;81.15;99514.75;5014356;28;20034;-76
2021/05/16 10:23:40;;;;;;;9.93;3.33;;;;;;;19.05;78.43;99510.69;5013579;28;20047;-76
2021/05/16 10:26:24;;;;;;;5.30;2.70;;;;;;;18.97;75.21;99504.69;5026201;28;20049;-75
2021/05/16 10:28:56;;;;;;;2.72;2.42;;;;;;;18.86;74.53;99512.47;5016308;28;20525;-76
2021/05/16 10:31:40;;;;;;;;;;;;;;;18.18;75.82;99509.47;5013946;28;20549;-75
2021/05/16 10:34:27;;;;;;;8.45;3.53;;;;;;;17.96;76.73;99514.78;5015896;28;20412;-76
2021/05/16 10:36:57;;;;;;;6.00;3.20;;;;;;;17.88;78.01;99518.91;5014985;28;20044;-76
2021/05/16 10:39:44;;;;;;;7.13;3.90;;;;;;;17.53;81.29;99538.91;5026702;28;20038;-76
2021/05/16 10:42:14;;;;;;;7.53;2.97;;;;;;;16.60;83.57;99539.59;5013464;28;20029;-75
2021/05/16 10:45:15;;;;;;;3.45;1.50;;;;;;;15.79;85.69;99541.25;5011903;28;20409;-75
2021/05/16 10:47:48;;;;;;;6.47;1.40;;;;;;;15.67;90.17;99530.22;4991554;28;20037;-75
2021/05/16 10:50:33;;;;;;;1.77;1.17;;;;;;;15.80;91.02;99533.84;5016778;28;20044;-75
2021/05/16 10:53:08;;;;;;;2.92;1.33;;;;;;;16.29;90.43;99527.41;4990242;28;20477;-75
2021/05/16 10:55:38;;;;;;;4.32;1.38;;;;;;;16.56;90.74;99524.53;5028422;28;20038;-75
2021/05/16 10:58:04;;;;;;;4.07;1.30;;;;;;;16.68;84.36;99521.94;5027153;28;20044;-75
2021/05/16 11:00:47;;;;;;;3.90;1.50;;;;;;;17.37;77.11;99517.91;5028623;28;20033;-75
2021/05/16 11:03:13;;;;;;;3.53;1.50;;;;;;;17.34;84.33;99526.94;5011033;28;20202;-75
2021/05/16 11:08:09;;;;;;;2.83;1.92;;;;;;;18.00;79.32;99524.38;5024217;28;20045;-74
2021/05/16 11:10:36;;;;;;;4.55;2.53;;;;;;;18.70;73.84;99521.53;5028020;28;20128;-76
2021/05/16 11:13:18;;;;;;;3.17;2.13;;;;;;;18.08;74.03;99524.19;5012042;28;20449;-75
2021/05/16 11:15:52;;;;;;;4.80;2.80;;;;;;;18.30;77.09;99522.34;5027908;28;20410;-75
2021/05/16 11:18:19;;;;;;;4.30;2.67;;;;;;;18.07;77.59;99515.22;5027462;28;20030;-75
2021/05/16 11:20:59;;;;;;;4.45;2.42;;;;;;;18.30;77.76;99512.22;5027183;28;20029;-76
2021/05/16 11:23:26;;;;;;;4.70;2.30;;;;;;;18.86;75.48;99507.00;5027230;28;20187;-76
2021/05/16 11:25:59;;;;;;;5.90;2.25;;;;;;;18.57;75.91;99500.91;5008874;28;20042;-75
2021/05/16 11:28:28;;;;;;;4.85;2.50;;;;;;;18.32;78.38;99498.91;5007740;28;20045;-75
2021/05/16 11:30:55;;;;;;;5.18;2.50;;;;;;;17.73;76.19;99496.72;5026393;28;20045;-76
2021/05/16 11:33:27;;;;;;;5.05;2.90;;;;;;;17.30;79.40;99499.03;5026611;28;20017;-76
2021/05/16 11:35:53;;;;;;;6.03;3.13;;;;;;;17.71;79.67;99501.09;5024601;28;20045;-76